METAR Data
IDs: Format: Raw Decoded Include TAF

Data at: 0134 UTC 24 Oct 2019

METAR for:KHNR (Harlan Muni, IA, US)
Text:KHNR 240115Z AUTO 02008G14KT 10SM FEW012 BKN018 OVC033 05/04 A3011 RMK AO2
Temperature: 5.0°C ( 41°F)
Dewpoint: 4.0°C ( 39°F) [RH = 93%]
Pressure (altimeter):30.11 inches Hg (1019.7 mb)
Winds:from the NNE (20 degrees) at 9 MPH (8 knots; 4.1 m/s) gusting to 16 MPH (14 knots; 7.2 m/s)
Visibility:10 or more sm (16+ km)
Ceiling:1800 feet AGL
Clouds: few clouds at 1200 feet AGL, broken clouds at 1800 feet AGL, overcast cloud deck at 3300 feet AGL
QC Flag:automated observation with no human augmentation